Terminal Aerodrome Forecast
Issued by NWS

Current Version | Previous Version | Graphics & Text | Print | Product List | Glossary Off
Versions: 1 2 3 4 5 6 7 8 9 10 11 12 13 14

651
FTUS42 KILM 192333
TAFCRE
TAF
KCRE 192333Z 2000/2024 35015KT P6SM FEW090
     FM200800 02008KT P6SM SKC
      TEMPO 2012/2016 03010G20KT
     FM201800 10008KT P6SM SKC=

USA.gov is the U.S. government's official web portal to all federal, state and local government web resources and services.